Time;durP1;ratioP1;P1;durP2;ratioP2;P2;SDS_P1;SDS_P2;PMS_P1;PMS_P2;Temp;Humidity;BMP_temperature;BMP_pressure;BME280_temperature;BME280_humidity;BME280_pressure;Samples;Min_cycle;Max_cycle;Signal;HPM_P1;HPM_P2
2022/08/27 00:00:31;;;;;;;5.78;5.28;;;;;;;21.60;nan;99136.78;5044907;28;20469;-80
2022/08/27 00:02:57;;;;;;;6.05;5.55;;;;;;;21.50;nan;99139.16;5032464;28;20545;-78
2022/08/27 00:05:23;;;;;;;7.07;5.75;;;;;;;21.33;nan;99134.59;5047103;28;20033;-80
2022/08/27 00:07:49;;;;;;;8.27;5.95;;;;;;;21.22;nan;99149.56;5044217;28;20044;-80
2022/08/27 00:10:18;;;;;;;5.93;5.38;;;;;;;21.16;nan;99148.59;5042865;28;20028;-80
2022/08/27 00:12:47;;;;;;;20.33;6.53;;;;;;;21.20;nan;99154.34;5037763;28;20029;-80
2022/08/27 00:15:14;;;;;;;9.55;5.50;;;;;;;21.25;nan;99138.41;5050473;28;20488;-81
2022/08/27 00:17:40;;;;;;;6.50;5.90;;;;;;;21.26;nan;99148.09;5039136;28;20048;-81
2022/08/27 00:20:07;;;;;;;6.50;5.18;;;;;;;21.23;nan;99135.94;5042436;28;20501;-81
2022/08/27 00:22:33;;;;;;;9.07;5.90;;;;;;;21.26;nan;99140.06;5037285;28;20099;-81
2022/08/27 00:24:59;;;;;;;6.80;6.05;;;;;;;21.23;nan;99137.78;5042571;28;20478;-81
2022/08/27 00:27:25;;;;;;;8.38;5.70;;;;;;;21.28;nan;99140.63;5031868;28;20536;-80
2022/08/27 00:29:51;;;;;;;8.85;5.97;;;;;;;21.33;nan;99142.63;5042520;28;20029;-80
2022/08/27 00:32:18;;;;;;;6.05;5.55;;;;;;;21.18;nan;99140.31;5045274;28;20029;-80
2022/08/27 00:34:43;;;;;;;7.43;5.93;;;;;;;20.98;nan;99137.78;5038947;28;20551;-81
2022/08/27 00:37:09;;;;;;;7.05;5.53;;;;;;;20.86;nan;99142.22;5038449;28;20041;-80
2022/08/27 00:39:35;;;;;;;8.95;4.95;;;;;;;20.76;nan;99134.66;5027062;28;20022;-79
2022/08/27 00:42:03;;;;;;;6.72;4.95;;;;;;;20.75;nan;99140.25;5039775;28;20493;-80
2022/08/27 00:44:29;;;;;;;5.55;5.05;;;;;;;20.61;nan;99134.19;5044572;28;20573;-79
2022/08/27 00:47:02;;;;;;;6.65;5.05;;;;;;;20.57;nan;99138.31;5042409;28;20560;-81
2022/08/27 00:49:31;;;;;;;6.82;6.22;;;;;;;20.57;nan;99127.59;5042935;28;20767;-81
2022/08/27 00:52:17;;;;;;;8.90;7.07;;;;;;;20.61;nan;99134.19;5036142;28;20021;-80
2022/08/27 00:54:42;;;;;;;6.55;5.95;;;;;;;20.62;nan;99143.84;5038295;28;20798;-80
2022/08/27 00:57:08;;;;;;;7.90;5.95;;;;;;;20.72;nan;99129.97;5037738;28;20056;-80
2022/08/27 00:59:35;;;;;;;8.02;6.25;;;;;;;20.71;nan;99131.81;5037018;28;20037;-80
2022/08/27 01:02:19;;;;;;;6.63;5.90;;;;;;;20.68;nan;99124.19;5047291;28;20473;-79
2022/08/27 01:05:00;;;;;;;6.88;6.22;;;;;;;20.65;nan;99139.91;5037875;28;20052;-80
2022/08/27 01:07:28;;;;;;;7.43;6.30;;;;;;;20.60;nan;99135.22;5042344;28;20030;-79
2022/08/27 01:09:56;;;;;;;7.90;6.57;;;;;;;20.39;nan;99130.19;5014642;28;20051;-79
2022/08/27 01:12:22;;;;;;;8.30;6.38;;;;;;;20.27;nan;99129.19;5038289;28;20021;-79
2022/08/27 01:14:48;;;;;;;9.40;7.20;;;;;;;20.17;nan;99131.53;5047723;28;20082;-79
2022/08/27 01:17:14;;;;;;;8.60;7.40;;;;;;;19.91;nan;99132.50;5039624;28;20103;-81
2022/08/27 01:19:49;;;;;;;7.55;6.82;;;;;;;20.04;nan;99141.28;5042945;28;20022;-82
2022/08/27 01:22:28;;;;;;;7.63;6.28;;;;;;;20.11;nan;99132.38;5031476;28;20041;-81
2022/08/27 01:24:57;;;;;;;7.95;6.72;;;;;;;20.02;nan;99129.16;5038540;28;20032;-82
2022/08/27 01:27:30;;;;;;;8.18;7.32;;;;;;;19.85;nan;99128.78;5040679;28;20048;-81
2022/08/27 01:29:56;;;;;;;7.43;6.72;;;;;;;19.73;nan;99132.38;5030655;28;20033;-82
2022/08/27 01:32:28;;;;;;;9.15;6.50;;;;;;;19.67;nan;99120.66;5043495;28;20441;-81
2022/08/27 01:34:55;;;;;;;10.13;6.63;;;;;;;19.63;nan;99116.72;5039831;28;20083;-82
2022/08/27 01:37:24;;;;;;;7.35;6.75;;;;;;;19.60;nan;99117.19;5036665;28;20037;-81
2022/08/27 01:39:50;;;;;;;8.20;7.00;;;;;;;19.49;nan;99115.97;5046120;28;20032;-82
2022/08/27 01:42:38;;;;;;;7.82;6.82;;;;;;;19.44;nan;99114.94;5037696;28;20060;-81
2022/08/27 01:45:09;;;;;;;7.55;6.78;;;;;;;19.46;nan;99107.53;5048012;28;20025;-81
2022/08/27 01:47:36;;;;;;;6.32;5.72;;;;;;;19.59;nan;99115.53;5044528;28;20036;-81
2022/08/27 01:50:11;;;;;;;7.97;6.60;;;;;;;19.71;nan;99116.50;5027231;28;20424;-82
2022/08/27 01:52:37;;;;;;;7.05;6.45;;;;;;;19.79;nan;99113.56;5024450;28;20389;-82
2022/08/27 01:55:08;;;;;;;7.13;6.53;;;;;;;19.92;nan;99116.19;5040694;28;20035;-81
2022/08/27 01:57:34;;;;;;;7.25;6.43;;;;;;;19.98;nan;99109.16;5038123;28;20037;-82
2022/08/27 02:00:08;;;;;;;6.82;6.00;;;;;;;19.99;nan;99121.53;5025614;28;20044;-82
2022/08/27 02:02:38;;;;;;;6.63;6.03;;;;;;;20.03;nan;99117.38;5045759;28;20128;-81
2022/08/27 02:05:05;;;;;;;7.35;6.30;;;;;;;20.03;nan;99120.88;5047651;28;20029;-81
2022/08/27 02:07:30;;;;;;;6.90;6.20;;;;;;;19.99;nan;99114.31;5047233;28;20033;-80
2022/08/27 02:09:56;;;;;;;7.15;6.55;;;;;;;19.94;nan;99116.81;5047291;28;20040;-81
2022/08/27 02:12:22;;;;;;;7.28;6.68;;;;;;;19.85;nan;99112.72;5034377;28;20063;-81
2022/08/27 02:14:47;;;;;;;8.55;6.53;;;;;;;19.78;nan;99111.97;5051189;28;20041;-83
2022/08/27 02:17:13;;;;;;;11.50;7.13;;;;;;;19.56;nan;99118.59;5042880;28;20036;-80
2022/08/27 02:19:39;;;;;;;9.40;6.57;;;;;;;19.55;nan;99106.28;5045956;28;20437;-82
2022/08/27 02:22:05;;;;;;;7.00;6.45;;;;;;;19.63;nan;99114.88;5041942;28;20036;-82
2022/08/27 02:24:30;;;;;;;7.60;6.78;;;;;;;19.74;nan;99104.53;5045327;28;20238;-81
2022/08/27 02:26:56;;;;;;;6.65;6.15;;;;;;;19.72;nan;99103.94;5045371;28;20084;-84
2022/08/27 02:29:23;;;;;;;7.95;7.15;;;;;;;19.62;nan;99102.53;5048839;28;20039;-84
2022/08/27 02:31:49;;;;;;;7.78;6.97;;;;;;;19.54;nan;99100.09;5047824;28;20410;-81
2022/08/27 02:34:16;;;;;;;7.00;6.35;;;;;;;19.59;nan;99100.28;5023874;28;20480;-82
2022/08/27 02:36:42;;;;;;;8.35;6.30;;;;;;;19.62;nan;99101.72;5041990;28;20107;-82
2022/08/27 02:39:08;;;;;;;9.00;6.65;;;;;;;19.61;nan;99105.44;5044868;28;20039;-82
2022/08/27 02:41:35;;;;;;;7.82;6.65;;;;;;;19.62;nan;99107.06;5045131;28;20043;-82
2022/08/27 02:44:01;;;;;;;7.47;6.22;;;;;;;19.62;nan;99101.72;5044514;28;20047;-80
2022/08/27 02:46:27;;;;;;;8.40;7.38;;;;;;;19.66;nan;99102.94;5044114;28;20033;-78
2022/08/27 02:48:53;;;;;;;7.82;7.13;;;;;;;19.68;nan;99103.53;5044227;28;20473;-82
2022/08/27 02:51:19;;;;;;;9.45;7.10;;;;;;;19.70;nan;99101.47;5040856;28;20079;-81
2022/08/27 02:53:44;;;;;;;7.10;6.40;;;;;;;19.68;nan;99105.38;5020924;28;20025;-81
2022/08/27 02:56:10;;;;;;;7.95;6.30;;;;;;;19.61;nan;99105.44;5040584;28;20188;-82
2022/08/27 02:58:36;;;;;;;7.13;6.63;;;;;;;19.57;nan;99104.19;5037776;28;20270;-81
2022/08/27 03:01:02;;;;;;;7.13;6.28;;;;;;;19.49;nan;99107.13;5046298;28;20037;-80
2022/08/27 03:03:29;;;;;;;7.68;6.97;;;;;;;19.42;nan;99106.28;5044277;28;20035;-80
2022/08/27 03:05:56;;;;;;;7.93;6.80;;;;;;;19.43;nan;99102.59;5047171;28;20402;-80
2022/08/27 03:08:24;;;;;;;7.75;6.45;;;;;;;19.43;nan;99097.22;5045597;28;20029;-79
2022/08/27 03:10:50;;;;;;;7.80;6.63;;;;;;;19.40;nan;99097.63;5048286;28;20025;-81
2022/08/27 03:13:17;;;;;;;7.50;6.90;;;;;;;19.31;nan;99097.06;5025936;28;20452;-79
2022/08/27 03:15:43;;;;;;;7.30;6.60;;;;;;;19.27;nan;99103.00;5048792;28;20354;-80
2022/08/27 03:18:17;;;;;;;9.05;7.05;;;;;;;19.22;nan;99109.81;5040958;28;20025;-80
2022/08/27 03:20:46;;;;;;;8.05;6.88;;;;;;;19.22;nan;99107.16;5043547;28;20437;-80
2022/08/27 03:23:16;;;;;;;6.88;6.18;;;;;;;19.25;nan;99115.78;5023128;28;20397;-80
2022/08/27 03:25:45;;;;;;;8.13;7.32;;;;;;;19.12;nan;99112.13;5047426;28;20033;-81
2022/08/27 03:28:13;;;;;;;7.40;6.70;;;;;;;18.97;nan;99108.81;5025495;28;20143;-81
2022/08/27 03:30:39;;;;;;;8.05;6.60;;;;;;;18.92;nan;99105.97;5051647;28;20087;-81
2022/08/27 03:33:06;;;;;;;7.35;6.65;;;;;;;18.92;nan;99099.78;5041439;28;20116;-80
2022/08/27 03:35:32;;;;;;;12.32;6.72;;;;;;;18.85;nan;99102.47;5046788;28;20056;-80
2022/08/27 03:37:58;;;;;;;7.30;6.45;;;;;;;18.85;nan;99099.78;5037411;28;20033;-81
2022/08/27 03:40:24;;;;;;;7.15;6.25;;;;;;;18.91;nan;99103.50;5047606;28;20037;-81
2022/08/27 03:42:49;;;;;;;6.82;6.22;;;;;;;18.95;nan;99110.06;5047172;28;20033;-81
2022/08/27 03:45:15;;;;;;;6.40;5.88;;;;;;;18.93;nan;99104.94;5047706;28;20064;-81
2022/08/27 03:47:42;;;;;;;8.13;7.32;;;;;;;18.96;nan;99106.38;5040839;28;20401;-81
2022/08/27 03:50:08;;;;;;;7.88;7.13;;;;;;;18.95;nan;99102.06;5049005;28;20025;-80
2022/08/27 03:52:35;;;;;;;7.78;7.13;;;;;;;18.97;nan;99106.16;5035973;28;20481;-80
2022/08/27 03:55:03;;;;;;;9.07;7.60;;;;;;;19.03;nan;99108.00;5050897;28;20503;-83
2022/08/27 03:57:29;;;;;;;8.30;7.55;;;;;;;19.09;nan;99111.69;5036952;28;20041;-81
2022/08/27 03:59:55;;;;;;;8.68;7.90;;;;;;;19.06;nan;99115.63;5030581;28;20025;-80
2022/08/27 04:02:21;;;;;;;9.10;8.30;;;;;;;19.13;nan;99111.09;5040927;28;20041;-80
2022/08/27 04:04:46;;;;;;;8.90;8.10;;;;;;;19.11;nan;99113.13;5043886;28;20025;-80
2022/08/27 04:07:12;;;;;;;9.57;8.60;;;;;;;18.99;nan;99117.47;5048197;28;20034;-80
2022/08/27 04:09:37;;;;;;;8.80;8.00;;;;;;;18.94;nan;99114.59;5044529;28;20032;-79
2022/08/27 04:12:03;;;;;;;9.82;7.95;;;;;;;18.97;nan;99122.19;5041790;28;20067;-79
2022/08/27 04:14:29;;;;;;;9.43;8.45;;;;;;;18.96;nan;99123.25;5047739;28;20029;-80
2022/08/27 04:16:55;;;;;;;8.93;7.95;;;;;;;18.97;nan;99122.19;5039852;28;20056;-81
2022/08/27 04:19:21;;;;;;;7.80;7.15;;;;;;;19.00;nan;99124.47;5051026;28;20044;-82
2022/08/27 04:21:46;;;;;;;8.77;8.02;;;;;;;19.02;nan;99133.13;5039776;28;20061;-81
2022/08/27 04:24:12;;;;;;;7.85;7.15;;;;;;;19.04;nan;99132.88;5047091;28;20029;-80
2022/08/27 04:26:41;;;;;;;9.07;7.47;;;;;;;18.96;nan;99133.94;5046859;28;20033;-82
2022/08/27 04:29:07;;;;;;;9.10;8.25;;;;;;;18.77;nan;99130.25;5046632;28;20115;-82
2022/08/27 04:31:34;;;;;;;7.93;7.22;;;;;;;18.69;nan;99126.94;5046109;28;20033;-82
2022/08/27 04:34:00;;;;;;;8.45;7.75;;;;;;;18.69;nan;99126.94;5039867;28;20074;-82
2022/08/27 04:36:25;;;;;;;9.18;7.40;;;;;;;18.73;nan;99128.19;5039163;28;20037;-82
2022/08/27 04:38:51;;;;;;;8.63;7.78;;;;;;;18.71;nan;99130.25;5032444;28;20037;-83
2022/08/27 04:41:20;;;;;;;9.98;7.82;;;;;;;18.60;nan;99129.00;5039953;28;20033;-80
2022/08/27 04:43:56;;;;;;;7.95;7.18;;;;;;;18.62;nan;99126.09;5049747;28;20068;-81
2022/08/27 04:46:27;;;;;;;10.82;7.45;;;;;;;18.67;nan;99129.00;5030237;28;20099;-82
2022/08/27 04:48:59;;;;;;;7.68;7.10;;;;;;;18.73;nan;99130.88;5047574;28;20108;-83
2022/08/27 04:51:26;;;;;;;9.10;7.50;;;;;;;18.76;nan;99144.63;5038145;28;20032;-83
2022/08/27 04:53:51;;;;;;;8.57;7.88;;;;;;;18.80;nan;99139.69;5051602;28;20036;-83
2022/08/27 04:56:21;;;;;;;8.55;7.70;;;;;;;18.83;nan;99141.97;5025043;28;20035;-82
2022/08/27 04:58:47;;;;;;;8.95;8.10;;;;;;;18.86;nan;99138.84;5047031;28;20029;-82
2022/08/27 05:01:17;;;;;;;9.40;8.50;;;;;;;18.90;nan;99142.78;5040160;28;20420;-81
2022/08/27 05:03:43;;;;;;;;;;;;;;;18.88;nan;99147.50;5039036;28;20766;-81
2022/08/27 05:06:09;;;;;;;9.57;8.57;;;;;;;18.86;nan;99143.38;5042692;28;19917;-81
2022/08/27 05:08:35;;;;;;;9.32;8.63;;;;;;;18.85;nan;99142.56;5039150;28;20742;-80
2022/08/27 05:11:01;;;;;;;9.50;8.80;;;;;;;18.94;nan;99146.69;5022361;28;20083;-82
2022/08/27 05:13:28;;;;;;;9.30;8.32;;;;;;;18.99;nan;99144.22;5038575;28;20441;-80
2022/08/27 05:16:05;;;;;;;8.15;7.47;;;;;;;18.98;nan;99147.09;5048959;28;20068;-83
2022/08/27 05:18:31;;;;;;;8.10;7.40;;;;;;;18.99;nan;99144.22;5039726;28;20025;-84
2022/08/27 05:20:57;;;;;;;9.18;8.27;;;;;;;19.05;nan;99151.41;5053645;28;20116;-84
2022/08/27 05:23:23;;;;;;;9.63;8.90;;;;;;;19.11;nan;99142.56;5026400;28;20044;-87
2022/08/27 05:25:51;;;;;;;10.70;8.57;;;;;;;19.09;nan;99138.44;5029904;28;20393;-85
2022/08/27 05:28:20;;;;;;;10.95;8.30;;;;;;;19.07;nan;99144.00;5042176;28;20037;-84
2022/08/27 05:30:48;;;;;;;8.27;7.57;;;;;;;19.09;nan;99138.44;5041611;28;20366;-84
2022/08/27 05:33:17;;;;;;;8.60;7.70;;;;;;;19.13;nan;99145.03;5038534;28;20444;-83
2022/08/27 05:35:45;;;;;;;9.55;8.65;;;;;;;19.11;nan;99153.25;5048961;28;20540;-84
2022/08/27 05:38:11;;;;;;;9.13;8.23;;;;;;;19.08;nan;99153.69;5042631;28;20041;-83
2022/08/27 05:40:39;;;;;;;8.82;8.05;;;;;;;19.06;nan;99157.59;5045410;28;20091;-84
2022/08/27 05:43:08;;;;;;;8.70;7.90;;;;;;;19.08;nan;99158.22;5045341;28;20373;-85
2022/08/27 05:45:40;;;;;;;8.70;7.97;;;;;;;19.09;nan;99159.81;5043253;28;20642;-84
2022/08/27 05:48:07;;;;;;;8.93;8.13;;;;;;;19.09;nan;99160.66;5042276;28;20444;-82
2022/08/27 05:50:32;;;;;;;8.93;8.13;;;;;;;19.09;nan;99163.31;5043926;28;20112;-82
2022/08/27 05:52:58;;;;;;;9.00;8.02;;;;;;;19.07;nan;99161.91;5039407;28;20128;-82
2022/08/27 05:55:24;;;;;;;8.93;8.20;;;;;;;19.03;nan;99158.81;5045164;28;20033;-82
2022/08/27 05:57:49;;;;;;;10.10;8.85;;;;;;;19.01;nan;99157.38;5034456;28;20033;-82
2022/08/27 06:02:59;;;;;;;9.00;8.20;;;;;;;18.99;nan;99165.59;5041450;28;20432;-83
2022/08/27 06:05:24;;;;;;;9.55;8.18;;;;;;;19.00;nan;99158.41;5039988;28;20085;-81
2022/08/27 06:07:50;;;;;;;7.82;7.22;;;;;;;18.95;nan;99158.19;5041537;28;20486;-83
2022/08/27 06:10:15;;;;;;;8.40;7.70;;;;;;;19.06;nan;99161.09;5044619;28;20021;-83
2022/08/27 06:12:41;;;;;;;8.75;7.97;;;;;;;19.11;nan;99158.59;5035236;28;20033;-83
2022/08/27 06:15:07;;;;;;;10.40;8.57;;;;;;;19.07;nan;99165.41;5028827;28;20037;-83
2022/08/27 06:17:33;;;;;;;9.68;8.10;;;;;;;19.09;nan;99165.19;5028331;28;20034;-84
2022/08/27 06:19:58;;;;;;;8.80;8.00;;;;;;;18.95;nan;99159.03;5047072;28;20024;-83
2022/08/27 06:22:24;;;;;;;9.80;8.35;;;;;;;19.12;nan;99164.78;5037925;28;20052;-85
2022/08/27 06:24:50;;;;;;;8.73;8.00;;;;;;;19.22;nan;99162.50;5030590;28;20026;-84
2022/08/27 06:27:17;;;;;;;8.55;7.75;;;;;;;19.32;nan;99162.09;5042905;28;20033;-85
2022/08/27 06:29:43;;;;;;;8.05;7.45;;;;;;;19.41;nan;99164.31;5044237;28;20561;-85
2022/08/27 06:32:11;;;;;;;9.05;7.88;;;;;;;19.53;nan;99161.84;5044254;28;20029;-86
2022/08/27 06:34:37;;;;;;;8.25;7.43;;;;;;;19.62;nan;99160.59;5046853;28;20801;-85
2022/08/27 06:37:04;;;;;;;8.00;7.30;;;;;;;19.72;nan;99166.34;5036020;28;20057;-84
2022/08/27 06:39:30;;;;;;;7.40;6.70;;;;;;;19.82;nan;99161.34;5044228;28;20037;-85
2022/08/27 06:41:56;;;;;;;10.82;7.18;;;;;;;19.93;nan;99167.91;5044562;28;20427;-83
2022/08/27 06:44:23;;;;;;;7.47;6.82;;;;;;;20.04;nan;99165.38;5032528;28;20047;-83
2022/08/27 06:46:50;;;;;;;9.15;6.82;;;;;;;20.13;nan;99168.66;5034822;28;20413;-85
2022/08/27 06:49:16;;;;;;;9.25;8.02;;;;;;;20.19;nan;99173.16;5042691;28;20037;-84
2022/08/27 06:51:45;;;;;;;8.85;7.57;;;;;;;20.07;nan;99164.16;5034850;28;20053;-87
2022/08/27 06:54:12;;;;;;;9.00;6.85;;;;;;;19.96;nan;99168.31;5049290;28;20095;-73
2022/08/27 06:56:39;;;;;;;8.27;7.47;;;;;;;19.97;nan;99172.63;5041874;28;20037;-73
2022/08/27 06:59:07;;;;;;;7.07;6.57;;;;;;;20.05;nan;99176.91;5051367;28;20037;-74
2022/08/27 07:01:36;;;;;;;6.88;6.13;;;;;;;20.20;nan;99173.97;5052256;28;20381;-73
2022/08/27 07:04:06;;;;;;;7.32;6.53;;;;;;;20.36;nan;99179.69;5048037;28;20379;-73
2022/08/27 07:06:33;;;;;;;7.05;5.95;;;;;;;20.53;nan;99177.31;5053254;28;20384;-74
2022/08/27 07:08:59;;;;;;;12.63;5.82;;;;;;;20.67;nan;99178.88;5033342;28;20025;-75
2022/08/27 07:11:27;;;;;;;6.13;5.53;;;;;;;20.75;nan;99175.09;5043813;28;20030;-75
2022/08/27 07:13:53;;;;;;;17.45;6.65;;;;;;;20.84;nan;99171.97;5042060;28;20439;-75
2022/08/27 07:16:22;;;;;;;6.32;5.72;;;;;;;20.96;nan;99172.06;5043719;28;20377;-74
2022/08/27 07:18:54;;;;;;;5.57;5.07;;;;;;;21.00;nan;99175.94;5035279;28;20033;-73
2022/08/27 07:21:21;;;;;;;5.65;5.07;;;;;;;21.08;nan;99172.19;5052750;28;20044;-74
2022/08/27 07:23:49;;;;;;;5.80;4.85;;;;;;;21.17;nan;99177.06;5038218;28;20021;-74
2022/08/27 07:26:15;;;;;;;6.03;5.40;;;;;;;21.29;nan;99177.16;5046205;28;20358;-76
2022/08/27 07:28:43;;;;;;;5.80;5.30;;;;;;;21.42;nan;99178.91;5039739;28;20095;-74
2022/08/27 07:31:11;;;;;;;6.60;5.70;;;;;;;21.53;nan;99176.31;5042006;28;20385;-70
2022/08/27 07:33:38;;;;;;;6.70;5.10;;;;;;;21.65;nan;99179.06;5048982;28;20449;-70
2022/08/27 07:36:05;;;;;;;6.75;6.22;;;;;;;21.76;nan;99180.19;5046106;28;20099;-71
2022/08/27 07:38:31;;;;;;;7.68;5.90;;;;;;;21.84;nan;99185.28;5049673;28;20116;-73
2022/08/27 07:40:57;;;;;;;8.35;6.65;;;;;;;21.99;nan;99183.03;5038340;28;20509;-72
2022/08/27 07:46:07;;;;;;;6.53;5.65;;;;;;;22.09;nan;99174.47;5050493;28;20861;-73
2022/08/27 07:48:34;;;;;;;5.47;5.07;;;;;;;22.14;nan;99183.50;5051815;28;20427;-75
2022/08/27 07:51:03;;;;;;;7.15;6.15;;;;;;;22.17;nan;99183.03;5026716;28;20383;-74
2022/08/27 07:53:33;;;;;;;6.85;5.38;;;;;;;22.21;nan;99186.91;5052512;28;20095;-75
2022/08/27 07:56:03;;;;;;;5.50;5.10;;;;;;;-144.47;100.00;61586.06;5037754;28;20594;-75
2022/08/27 07:58:29;;;;;;;5.88;5.00;;;;;;;-144.47;100.00;61586.06;5049974;28;20370;-74
2022/08/27 08:00:55;;;;;;;5.30;4.90;;;;;;;-144.47;100.00;61586.06;5037771;28;20037;-73
2022/08/27 08:03:21;;;;;;;6.72;5.15;;;;;;;-144.47;100.00;61586.06;5047116;28;20041;-74
2022/08/27 08:05:48;;;;;;;5.80;4.50;;;;;;;187.31;100.00;61586.06;5048700;28;20029;-74
2022/08/27 08:08:14;;;;;;;5.95;5.45;;;;;;;-144.47;100.00;61586.06;5044336;28;20389;-74
2022/08/27 08:10:42;;;;;;;5.07;4.60;;;;;;;104.25;100.00;61586.06;5041078;28;20576;-73
2022/08/27 08:13:09;;;;;;;5.93;5.28;;;;;;;26.45;100.00;61586.06;5044283;28;20456;-75
2022/08/27 08:15:34;;;;;;;6.10;4.88;;;;;;;62.74;100.00;61586.06;5040922;28;20035;-73
2022/08/27 08:18:00;;;;;;;4.57;4.18;;;;;;;-144.47;100.00;61586.06;5045769;28;20032;-73
2022/08/27 08:20:26;;;;;;;5.07;4.57;;;;;;;104.25;100.00;61586.06;5051771;28;20415;-73
2022/08/27 08:22:52;;;;;;;5.63;4.82;;;;;;;104.25;100.00;61586.06;5039786;28;20025;-73
2022/08/27 08:25:17;;;;;;;5.20;4.70;;;;;;;104.25;100.00;61586.06;5048360;28;20039;-73
2022/08/27 08:27:44;;;;;;;6.18;4.72;;;;;;;-144.47;100.00;61586.06;5035247;28;20037;-73
2022/08/27 08:30:10;;;;;;;5.60;5.10;;;;;;;104.25;100.00;61586.06;5051121;28;20033;-73
2022/08/27 08:32:37;;;;;;;6.45;4.50;;;;;;;104.25;100.00;61586.06;5045658;28;20029;-74
2022/08/27 08:35:04;;;;;;;4.53;4.22;;;;;;;104.25;100.00;61586.06;5048800;28;20056;-72
2022/08/27 08:37:30;;;;;;;8.52;5.65;;;;;;;104.25;100.00;61586.06;5042458;28;20038;-73
2022/08/27 08:39:55;;;;;;;5.53;4.95;;;;;;;104.25;100.00;61586.06;5032066;28;20087;-70
2022/08/27 08:42:34;;;;;;;6.53;4.63;;;;;;;62.74;100.00;61586.06;5046397;28;20092;-70
2022/08/27 08:45:04;;;;;;;6.68;4.70;;;;;;;187.31;100.00;61586.06;5042325;28;20127;-71
2022/08/27 08:47:43;;;;;;;4.55;4.15;;;;;;;-144.47;100.00;61586.06;5048625;28;20040;-73
2022/08/27 08:50:33;;;;;;;3.90;3.58;;;;;;;-144.47;100.00;61586.06;5043555;28;20082;-71
2022/08/27 08:53:11;;;;;;;;;;;;;;;-144.47;100.00;61586.06;5046377;28;20060;-70
2022/08/27 08:55:50;;;;;;;4.63;3.00;;;;;;;-144.47;100.00;61586.06;5044465;28;19928;-70
2022/08/27 08:58:22;;;;;;;3.38;3.08;;;;;;;-144.47;100.00;61586.06;5021832;28;20069;-71
2022/08/27 09:00:55;;;;;;;4.68;3.40;;;;;;;-144.47;100.00;61586.06;5041448;28;20039;-73
2022/08/27 09:03:21;;;;;;;3.28;2.97;;;;;;;-144.47;100.00;61586.06;5048979;28;20029;-71
2022/08/27 09:06:01;;;;;;;3.47;2.40;;;;;;;-144.47;100.00;61586.06;5046072;28;20036;-72
2022/08/27 09:08:32;;;;;;;3.28;2.47;;;;;;;-144.47;100.00;61586.06;5046110;28;20134;-71
2022/08/27 09:11:07;;;;;;;3.63;2.20;;;;;;;-144.47;100.00;61586.06;5032221;28;20064;-71
2022/08/27 09:13:39;;;;;;;2.90;2.40;;;;;;;-144.47;100.00;61586.06;5031045;28;20128;-73
2022/08/27 09:16:05;;;;;;;2.17;2.08;;;;;;;-144.47;100.00;61586.06;5042139;28;20044;-72
2022/08/27 09:18:35;;;;;;;2.42;2.28;;;;;;;-144.47;100.00;61586.06;5040388;28;20026;-70
2022/08/27 09:21:10;;;;;;;2.97;2.33;;;;;;;-144.47;100.00;61586.06;5047719;28;20072;-70
2022/08/27 09:23:41;;;;;;;2.40;2.20;;;;;;;-144.47;100.00;61586.06;5036489;28;20029;-70
2022/08/27 09:26:19;;;;;;;2.30;2.10;;;;;;;-144.47;100.00;61586.06;5045678;28;20037;-72
2022/08/27 09:31:35;;;;;;;3.53;2.40;;;;;;;-144.47;100.00;61586.06;5051199;28;20522;-71
2022/08/27 09:34:02;;;;;;;3.42;2.42;;;;;;;24.93;100.00;61586.06;5042677;28;20040;-71
2022/08/27 09:36:29;;;;;;;3.78;2.33;;;;;;;24.99;100.00;61586.06;5021012;28;20042;-69
2022/08/27 09:39:02;;;;;;;2.38;2.17;;;;;;;-144.47;100.00;61586.06;5042349;28;20036;-69
2022/08/27 09:41:31;;;;;;;2.38;2.17;;;;;;;-144.47;100.00;61586.06;5032944;28;20079;-69
2022/08/27 09:44:06;;;;;;;3.35;2.03;;;;;;;-144.47;100.00;61586.06;5053225;28;20115;-69
2022/08/27 09:46:31;;;;;;;2.08;1.95;;;;;;;-144.47;100.00;61586.06;5038557;28;20044;-69
2022/08/27 09:49:08;;;;;;;4.13;2.22;;;;;;;-144.47;100.00;61586.06;5046669;28;20029;-70
2022/08/27 09:51:34;;;;;;;3.92;1.90;;;;;;;-144.47;100.00;61586.06;5037477;28;20492;-70
2022/08/27 09:54:03;;;;;;;2.38;2.17;;;;;;;-144.47;100.00;61586.06;5039732;28;20053;-69
2022/08/27 09:56:46;;;;;;;2.40;2.00;;;;;;;-144.47;100.00;61586.06;5043001;28;20036;-70
2022/08/27 09:59:21;;;;;;;2.83;2.58;;;;;;;-144.47;100.00;61586.06;5038274;28;20033;-70
2022/08/27 10:02:03;;;;;;;2.40;2.25;;;;;;;-144.47;100.00;61586.06;5042485;28;20098;-69
2022/08/27 10:04:36;;;;;;;3.58;2.53;;;;;;;-144.47;100.00;61586.06;5038240;28;20029;-70
2022/08/27 10:07:28;;;;;;;3.20;2.70;;;;;;;-144.47;100.00;61586.06;5049381;28;20520;-71
2022/08/27 10:10:03;;;;;;;3.10;2.30;;;;;;;-144.47;100.00;61586.06;5045136;28;20029;-73
2022/08/27 10:12:46;;;;;;;4.28;2.53;;;;;;;-144.47;100.00;61586.06;5047669;28;20033;-71
2022/08/27 10:15:13;;;;;;;3.17;2.97;;;;;;;-144.47;100.00;61586.06;5013166;28;20120;-72
2022/08/27 10:18:17;;;;;;;3.35;3.05;;;;;;;-144.47;100.00;61586.06;5046539;28;20289;-71
2022/08/27 10:20:46;;;;;;;3.20;2.90;;;;;;;-144.47;100.00;61586.06;4998994;28;20068;-74
2022/08/27 10:23:18;;;;;;;7.45;3.28;;;;;;;-144.47;100.00;61586.06;5042201;28;20478;-75
2022/08/27 10:25:44;;;;;;;4.53;2.50;;;;;;;-144.47;100.00;61586.06;5047726;28;20077;-73
2022/08/27 10:28:33;;;;;;;2.88;2.67;;;;;;;-144.47;100.00;61586.06;5032956;28;20102;-72
2022/08/27 10:31:23;;;;;;;3.00;2.58;;;;;;;-144.47;100.00;61586.06;5047759;28;20036;-73
2022/08/27 10:33:55;;;;;;;3.28;2.65;;;;;;;-144.47;100.00;61586.06;5049987;28;20119;-74
2022/08/27 10:36:34;;;;;;;2.63;2.40;;;;;;;-144.47;100.00;61586.06;5053163;28;20100;-72
2022/08/27 10:39:15;;;;;;;4.63;2.45;;;;;;;-144.47;100.00;61586.06;5048098;28;20025;-72
2022/08/27 10:41:44;;;;;;;3.03;2.30;;;;;;;-144.47;100.00;61586.06;5040361;28;20033;-74
2022/08/27 10:44:27;;;;;;;2.42;2.25;;;;;;;-144.47;100.00;61586.06;5042854;28;20032;-73
2022/08/27 10:47:27;;;;;;;3.00;2.50;;;;;;;104.25;100.00;61586.06;5044391;28;20536;-73
2022/08/27 10:50:04;;;;;;;4.28;2.33;;;;;;;62.74;100.00;61586.06;5048599;28;20613;-72
2022/08/27 10:52:54;;;;;;;2.55;2.20;;;;;;;62.74;100.00;61586.06;5048118;28;20505;-73
2022/08/27 10:55:36;;;;;;;2.10;2.00;;;;;;;62.74;100.00;61586.06;5037164;28;20070;-73
2022/08/27 10:58:49;;;;;;;4.22;2.72;;;;;;;-144.47;100.00;61586.06;5050259;28;20049;-68
2022/08/27 11:01:47;;;;;;;6.57;2.72;;;;;;;-144.47;100.00;61586.06;4977359;28;20487;-71
2022/08/27 11:04:21;;;;;;;4.78;2.60;;;;;;;62.74;100.00;61586.06;4990380;28;20495;-72
2022/08/27 11:07:10;;;;;;;4.45;2.70;;;;;;;104.25;100.00;61586.06;4995497;28;20490;-72
2022/08/27 11:10:00;;;;;;;3.40;2.78;;;;;;;26.88;100.00;61586.06;4999945;28;20482;-71
2022/08/27 11:12:40;;;;;;;2.72;2.53;;;;;;;-144.47;100.00;61586.06;4964126;28;20706;-72
2022/08/27 11:15:17;;;;;;;4.47;2.90;;;;;;;62.74;100.00;61586.06;4982595;28;20511;-72
2022/08/27 11:17:52;;;;;;;3.90;2.60;;;;;;;42.00;100.00;61586.06;4982589;28;20493;-74
2022/08/27 11:20:20;;;;;;;5.90;3.47;;;;;;;42.00;100.00;61586.06;4992636;28;20571;-72
2022/08/27 11:23:07;;;;;;;3.53;2.78;;;;;;;42.00;100.00;61586.06;4997672;28;20057;-73
2022/08/27 11:25:59;;;;;;;3.63;3.03;;;;;;;62.74;100.00;61586.06;4981867;28;20129;-73
2022/08/27 11:28:36;;;;;;;3.83;2.90;;;;;;;62.74;100.00;61586.06;4979739;28;20646;-73
2022/08/27 11:31:13;;;;;;;3.42;2.92;;;;;;;62.74;100.00;61586.06;5002225;28;20914;-72
2022/08/27 11:34:00;;;;;;;7.43;3.53;;;;;;;-144.47;100.00;61586.06;5031374;28;20029;-73
2022/08/27 11:36:37;;;;;;;2.85;2.65;;;;;;;42.00;100.00;61586.06;5065596;28;20484;-72
2022/08/27 11:39:31;;;;;;;5.53;3.05;;;;;;;62.74;100.00;61586.06;5071443;28;20041;-70
2022/08/27 11:42:18;;;;;;;3.13;2.80;;;;;;;-144.47;100.00;61586.06;5065197;28;20090;-69
2022/08/27 11:44:48;;;;;;;3.40;2.80;;;;;;;-144.47;100.00;61586.06;5070203;28;20032;-69
2022/08/27 11:47:20;;;;;;;3.45;2.60;;;;;;;-144.47;100.00;61586.06;5051526;28;20039;-70
2022/08/27 11:49:54;;;;;;;4.07;2.67;;;;;;;187.31;100.00;61586.06;5071232;28;20079;-68
2022/08/27 11:52:34;;;;;;;2.58;2.38;;;;;;;104.25;100.00;61586.06;5053719;28;20086;-69
2022/08/27 11:55:15;;;;;;;2.55;2.38;;;;;;;-144.47;100.00;61586.06;5068448;28;20021;-70
2022/08/27 11:57:43;;;;;;;3.35;3.05;;;;;;;187.31;100.00;61586.06;5071417;28;20028;-68
2022/08/27 12:00:22;;;;;;;2.97;2.50;;;;;;;-144.47;100.00;61586.06;5068618;28;20051;-71